Aviation Digital Data Service (ADDS)

Output produced by METARs form (1520 UTC 20 March 2019)
found at http://www.aviationweather.gov/metar/data/
 
Forecast for: FGBT (BATA (RIO MUNI) , GQ)
Text: TAF FGBT 201100Z 2012/2112 22008KT 9999 SCT010
Forecast period: 1200 UTC 20 March 2019 to 1200 UTC 21 March 2019
Forecast type: FROM: standard forecast or significant change
Winds: from the SW (220 degrees) at 9 MPH (8 knots; 4.1 m/s)
Visibility: 6 or more miles 10+ km)
Ceiling: at least 12,000 feet AGL
Clouds: scattered clouds at 1000 feet AGL
Weather: no significant weather forecast for this period
Text: TEMPO 2016/2022 TS BKN010 FEW020CB
Forecast period: 1600 to 2200 UTC 20 March 2019
Forecast type: TEMPORARY: The following changes expected for less than half the time period
Visibility: missing
Ceiling: 1000 feet AGL
Clouds: broken clouds at 1000 feet AGL
few clouds at 2000 feet AGL
Weather: TS  (thunderstorm)